createdAt,value
2022-11-23T01:03:55.372Z,11.60
2022-11-23T01:16:02.517Z,11.70
2022-11-23T01:34:57.232Z,11.80
2022-11-23T01:37:25.560Z,11.80
2022-11-23T01:39:53.883Z,11.90
2022-11-23T01:42:22.257Z,11.90
2022-11-23T01:44:52.166Z,12.00
2022-11-23T01:47:20.731Z,12.00
2022-11-23T01:49:53.929Z,12.00
2022-11-23T01:52:26.218Z,12.00
2022-11-23T01:54:58.217Z,12.10
2022-11-23T01:57:31.911Z,11.90
2022-11-23T02:00:00.324Z,12.10
2022-11-23T02:02:30.386Z,12.10
2022-11-23T02:05:03.110Z,12.10
2022-11-23T02:07:32.691Z,11.90
2022-11-23T05:55:24.346Z,11.80
2022-11-23T05:57:52.850Z,11.80
2022-11-23T06:00:21.729Z,11.80
2022-11-23T06:02:50.104Z,11.80
2022-11-23T06:05:18.436Z,11.80
2022-11-23T06:07:46.772Z,11.70
2022-11-23T06:10:15.639Z,11.60
2022-11-23T06:12:45.928Z,11.50
2022-11-23T06:15:14.791Z,11.40
2022-11-23T06:17:43.081Z,11.40
2022-11-23T06:20:12.130Z,11.40
2022-11-23T06:22:40.718Z,11.30
2022-11-23T06:25:09.968Z,11.30
2022-11-23T06:27:38.220Z,11.10
2022-11-23T06:30:10.099Z,11.20
2022-11-23T06:32:38.783Z,11.20
2022-11-23T06:35:07.521Z,11.20
2022-11-23T06:37:35.925Z,11.20
2022-11-23T06:40:04.763Z,11.20
2022-11-23T06:42:40.473Z,11.20
2022-11-23T06:45:11.800Z,11.10
2022-11-23T06:47:40.271Z,11.20
2022-11-23T06:50:10.018Z,11.20
2022-11-23T06:52:38.271Z,11.20
2022-11-23T06:55:07.077Z,11.20
2022-11-23T06:57:35.381Z,11.20
2022-11-23T07:00:05.348Z,11.20
2022-11-23T07:02:35.163Z,11.20
2022-11-23T07:05:03.448Z,11.20
2022-11-23T07:07:31.753Z,11.30
2022-11-23T07:10:05.378Z,11.30
2022-11-23T07:12:35.175Z,11.30
2022-11-23T07:15:03.699Z,11.20
2022-11-23T07:17:31.968Z,11.30
2022-11-23T07:20:01.604Z,11.30
2022-11-23T07:22:30.295Z,11.40
2022-11-23T07:24:59.097Z,11.20
2022-11-23T07:27:27.938Z,11.40
2022-11-23T07:29:56.486Z,11.40
2022-11-23T07:32:25.345Z,11.40
2022-11-23T07:34:53.977Z,11.40
2022-11-23T07:37:24.315Z,11.30
2022-11-23T07:39:58.507Z,11.50
2022-11-23T07:42:35.610Z,11.40
2022-11-23T07:45:10.886Z,11.60
2022-11-23T07:47:40.392Z,11.60
2022-11-23T07:50:11.597Z,11.60
2022-11-23T07:52:42.365Z,11.60
2022-11-23T07:55:12.348Z,11.70
2022-11-23T07:57:41.328Z,11.60
2022-11-23T08:00:12.720Z,11.70
2022-11-23T08:03:04.314Z,11.50
2022-11-23T08:05:35.028Z,11.80
2022-11-23T08:08:06.053Z,11.80
2022-11-23T08:10:40.196Z,11.90
2022-11-23T08:13:12.761Z,11.90
2022-11-23T08:15:41.244Z,11.80
2022-11-23T08:18:12.097Z,11.80
2022-11-23T08:20:40.832Z,12.00
2022-11-23T08:23:11.418Z,12.00
2022-11-23T08:25:40.658Z,12.10
2022-11-23T08:28:09.436Z,12.10
2022-11-23T08:30:39.216Z,12.10
2022-11-23T08:33:09.656Z,12.30
2022-11-23T08:35:39.712Z,12.30
2022-11-23T08:38:12.128Z,12.40
2022-11-23T08:40:41.299Z,12.50
2022-11-23T08:43:10.061Z,12.60
2022-11-23T08:45:38.973Z,12.70
2022-11-23T08:48:08.935Z,12.90
2022-11-23T08:50:38.992Z,12.80
2022-11-23T08:53:07.655Z,13.00
2022-11-23T08:55:38.055Z,12.90
2022-11-23T08:58:12.988Z,12.80
2022-11-23T09:00:42.388Z,12.70
2022-11-23T09:03:11.641Z,12.90
2022-11-23T09:05:40.560Z,12.90
2022-11-23T09:08:09.991Z,12.90
2022-11-23T09:10:40.807Z,12.90
2022-11-23T09:13:09.770Z,12.90
2022-11-23T09:15:38.645Z,12.80
2022-11-23T09:18:07.889Z,12.80
2022-11-23T09:20:37.341Z,12.90
2022-11-23T09:23:10.591Z,12.80
2022-11-23T09:25:47.948Z,12.80
2022-11-23T09:28:19.790Z,12.70
2022-11-23T09:30:48.802Z,12.80
2022-11-23T09:33:18.127Z,12.90
2022-11-23T09:35:46.886Z,12.90
2022-11-23T09:38:17.155Z,12.80
2022-11-23T09:40:54.903Z,12.90
2022-11-23T09:43:49.769Z,12.70
2022-11-23T09:46:36.847Z,12.60
2022-11-23T09:49:23.817Z,12.70
2022-11-23T09:51:59.839Z,12.60
2022-11-23T09:54:34.328Z,12.80
2022-11-23T09:57:07.679Z,12.80
2022-11-23T09:59:43.702Z,12.60
2022-11-23T10:02:22.306Z,12.80
2022-11-23T10:04:53.236Z,12.80
2022-11-23T10:07:46.050Z,12.80
2022-11-23T10:10:34.499Z,12.50
2022-11-23T10:13:20.985Z,12.80
2022-11-23T10:16:08.487Z,12.90
2022-11-23T10:18:47.641Z,12.90
2022-11-23T10:21:25.901Z,12.80
2022-11-23T10:23:59.765Z,12.90
2022-11-23T10:26:33.850Z,12.90
2022-11-23T10:29:15.696Z,13.00
2022-11-23T10:31:55.465Z,12.90
2022-11-23T10:34:44.164Z,13.00
2022-11-23T10:37:15.056Z,13.10
2022-11-23T10:39:43.897Z,13.20
2022-11-23T10:42:22.403Z,13.30
2022-11-23T10:44:57.249Z,13.50
2022-11-23T10:47:42.870Z,13.60
2022-11-23T10:50:29.759Z,13.70
2022-11-23T10:53:02.264Z,13.80
2022-11-23T10:55:33.863Z,13.80
2022-11-23T10:58:02.971Z,13.90
2022-11-23T11:00:34.881Z,14.00
2022-11-23T11:03:24.177Z,14.00
2022-11-23T11:06:08.555Z,14.20
2022-11-23T11:08:51.952Z,14.30
2022-11-23T11:11:27.787Z,14.30
2022-11-23T11:14:07.588Z,14.30
2022-11-23T11:16:38.917Z,14.50
2022-11-23T11:19:26.976Z,14.60
2022-11-23T11:21:56.058Z,14.70
2022-11-23T11:24:33.248Z,14.70
2022-11-23T11:27:18.779Z,14.70
2022-11-23T11:29:56.941Z,14.70
2022-11-23T11:33:12.665Z,14.70
2022-11-23T11:35:50.640Z,14.70
2022-11-23T11:38:28.080Z,14.70
2022-11-23T11:41:01.373Z,14.80
2022-11-23T11:43:39.989Z,14.70
